Ana Sayfa
METAR-TAF:

METAR-TAF

Havaalanları :

Washington, Pensilvanya, Amerika Birleşik Devletleri

Enlem: 40-08N, Boylam: 080-17W, yükseklik: 361 m

Güncel hava durumu gözlemi

Rapor saat 19:56 UTC de 51 dakika önce yapıldı.
Rüzgar güney/güneybatıdan 12 kt ve 20 kt'a kadar ani rüzgarlar
Sıcaklık 11°C
Nem 22%
Basınç 1019 hPa
Görüş mesafesi: 16.1 km
8000 ft yükseklikte çok bulutlu

METAR: KAFJ 231956Z AUTO 21012G20KT 10SM OVC080 11/M10 A3010 RMK AO2 SLP201 T01061100 PWINO

Saat: 15:47 (20:47 UTC)


TAF: eksik

4.000'den fazla havaalanı için hava durumu gözlemleri ve tahminleri (METAR ve TAF raporları).

Kullanılabilir istasyonlar harita üzerinde sarı ve kırmızı noktalarla gösterilir.

İstasyonun adını görmek için fareyi noktanın üzerinde gezdirin.

Sonrasında hava gözlem ve tahminlerini görmek için tıklayın.

Haritayı değiştirmek için: yaklaştırmak için siyah artı işaretli yeşil düğmeye ve uzaklaştırmak için de eksi işaretli düğmeye hızla tıklayın; bitişik haritalar için yeşil okları kullanın.


METAR-TAF: